KDAB/DAB METAR and TAF weather

Enter ICAO airport designator
Station Type Date Time Source
KDAB METAR 2020/04/07 04:53 UTC NOAA

KDAB 070453Z 00000KT 10SM CLR 17/17 A3011 RMK AO2 SLP196 T01720172 402610172


Station Type Date Time Source
KDAB Decoded METAR 2020/04/07 04:53 UTC NOAA

DAYTONA BEACH INTERNATIONAL, FL, United States (KDAB) 29-10N 81-04W 9M
Apr 07, 2020 - 12:53 AM EDT / 2020.04.07 0453 UTC
Wind: Calm:0
Visibility: 10 mile(s):0
Sky conditions: clear
Temperature: 63.0 F (17.2 C)
Dew Point: 63.0 F (17.2 C)
Relative Humidity: 100%
Pressure (altimeter): 30.11 in. Hg (1019 hPa)
ob: KDAB 070453Z 00000KT 10SM CLR 17/17 A3011 RMK AO2 SLP196 T01720172 402610172
cycle: 5

Station Type Date Time Source
KDAB TAF 2020/04/06 18:43 UTC NOAA

TAF KDAB 061735Z 0618/0718 08011G18KT P6SM SCT040 SCT080
FM070000 VRB03KT P6SM SCT025
FM071500 15007KT P6SM SCT035

Example: see airport list